This is the latest recevied weather packets stored in our database for station/object SQ5TM-1. If no packets are shown the sender has not sent any weather packets the latest 10 day(s).
| Time | Temp. | Humidity | Pressure | Rain* | Wind** | Luminosity | Snow |
|---|---|---|---|---|---|---|---|
| 1777479254 | 9.44° C | 41% | 1016 hPa | - | - | 0 W/m² | - |
| 1777478330 | 9.44° C | 40% | 1016 hPa | - | - | 0 W/m² | - |
| 1777477406 | 10° C | 40% | 1016 hPa | - | - | 0 W/m² | - |
| 1777476481 | 10.56° C | 40% | 1016 hPa | - | - | 0 W/m² | - |
| 1777475557 | 12.22° C | 37% | 1016 hPa | - | - | 0 W/m² | - |
| 1777474633 | 16.11° C | 34% | 1016 hPa | - | - | 0 W/m² | - |
| 1777474452 | 13.89° C | 36% | 1016 hPa | - | - | 0 W/m² | - |
| 1777473527 | 12.22° C | 38% | 1016 hPa | - | - | 0 W/m² | - |
| 1777472603 | 11.11° C | 39% | 1016 hPa | - | - | 0 W/m² | - |
| 1777471679 | 14.44° C | 34% | 1016 hPa | - | - | 0 W/m² | - |
| 1777470755 | 16.67° C | 33% | 1016 hPa | - | - | 0 W/m² | - |
| 1777469830 | 15.56° C | 34% | 1016 hPa | - | - | 0 W/m² | - |
| 1777468906 | 14.44° C | 36% | 1016 hPa | - | - | 0 W/m² | - |
| 1777467982 | 10.56° C | 41% | 1016 hPa | - | - | 0 W/m² | - |
| 1777467057 | 9.44° C | 41% | 1016 hPa | - | - | 0 W/m² | - |
| 1777466132 | 12.22° C | 37% | 1016 hPa | - | - | 0 W/m² | - |
| 1777465208 | 15° C | 35% | 1016 hPa | - | - | 0 W/m² | - |
| 1777464283 | 9.44° C | 42% | 1016 hPa | - | - | 0 W/m² | - |
| 1777463360 | 7.78° C | 46% | 1016 hPa | - | - | 0 W/m² | - |
| 1777462435 | 7.78° C | 45% | 1016 hPa | - | - | 0 W/m² | - |
| 1777461510 | 8.89° C | 44% | 1016 hPa | - | - | 0 W/m² | - |
| 1777460586 | 7.78° C | 45% | 1016 hPa | - | - | 0 W/m² | - |
| 1777459662 | 7.22° C | 46% | 1016 hPa | - | - | 0 W/m² | - |
| 1777458738 | 7.22° C | 48% | 1016 hPa | - | - | 0 W/m² | - |
| 1777457813 | 7.22° C | 46% | 1016 hPa | - | - | 0 W/m² | - |
* Rain since midnight (hover to see other rain measurements)
** Current wind speed in m/s (hover to see current wind gust speed)